sensor_id;sensor_type;location;lat;lon;timestamp;temperature;humidity
19031;DHT22;9648;51.130;13.978;2022-12-24T00:00:56;8.70;99.90
19031;DHT22;9648;51.130;13.978;2022-12-24T00:03:23;8.70;99.90
19031;DHT22;9648;51.130;13.978;2022-12-24T00:05:50;8.70;99.90
19031;DHT22;9648;51.130;13.978;2022-12-24T00:08:16;8.80;99.90
19031;DHT22;9648;51.130;13.978;2022-12-24T00:10:44;8.90;99.90
19031;DHT22;9648;51.130;13.978;2022-12-24T00:13:14;9.00;99.90
19031;DHT22;9648;51.130;13.978;2022-12-24T00:15:40;9.00;99.90
19031;DHT22;9648;51.130;13.978;2022-12-24T00:18:08;9.10;99.90
19031;DHT22;9648;51.130;13.978;2022-12-24T00:20:35;9.10;99.90
19031;DHT22;9648;51.130;13.978;2022-12-24T00:23:02;9.20;99.90
19031;DHT22;9648;51.130;13.978;2022-12-24T00:25:29;9.20;99.90
19031;DHT22;9648;51.130;13.978;2022-12-24T00:27:55;9.20;99.90
19031;DHT22;9648;51.130;13.978;2022-12-24T00:30:22;9.30;99.90
19031;DHT22;9648;51.130;13.978;2022-12-24T00:32:49;9.40;99.90
19031;DHT22;9648;51.130;13.978;2022-12-24T00:35:17;9.50;99.90
19031;DHT22;9648;51.130;13.978;2022-12-24T00:37:46;9.50;99.90
19031;DHT22;9648;51.130;13.978;2022-12-24T00:40:13;9.50;99.90
19031;DHT22;9648;51.130;13.978;2022-12-24T00:42:40;9.50;99.90
19031;DHT22;9648;51.130;13.978;2022-12-24T00:45:07;9.40;99.90
19031;DHT22;9648;51.130;13.978;2022-12-24T00:47:34;9.40;99.90
19031;DHT22;9648;51.130;13.978;2022-12-24T00:50:01;9.40;99.90
19031;DHT22;9648;51.130;13.978;2022-12-24T00:52:29;9.40;99.90
19031;DHT22;9648;51.130;13.978;2022-12-24T00:54:56;9.40;99.90
19031;DHT22;9648;51.130;13.978;2022-12-24T00:57:22;9.40;99.90
19031;DHT22;9648;51.130;13.978;2022-12-24T00:59:49;9.30;99.90
19031;DHT22;9648;51.130;13.978;2022-12-24T01:02:16;9.30;99.90
19031;DHT22;9648;51.130;13.978;2022-12-24T01:04:43;9.30;99.90
19031;DHT22;9648;51.130;13.978;2022-12-24T01:07:28;9.30;99.90
19031;DHT22;9648;51.130;13.978;2022-12-24T01:09:55;9.30;99.90
19031;DHT22;9648;51.130;13.978;2022-12-24T01:12:22;9.30;99.90
19031;DHT22;9648;51.130;13.978;2022-12-24T01:14:48;9.30;99.90
19031;DHT22;9648;51.130;13.978;2022-12-24T01:17:15;9.30;99.90
19031;DHT22;9648;51.130;13.978;2022-12-24T01:19:42;9.30;99.90
19031;DHT22;9648;51.130;13.978;2022-12-24T01:22:08;9.30;99.90
19031;DHT22;9648;51.130;13.978;2022-12-24T01:24:36;9.30;99.90
19031;DHT22;9648;51.130;13.978;2022-12-24T01:27:03;9.30;99.90
19031;DHT22;9648;51.130;13.978;2022-12-24T01:29:30;9.20;99.90
19031;DHT22;9648;51.130;13.978;2022-12-24T01:31:56;9.30;99.90
19031;DHT22;9648;51.130;13.978;2022-12-24T01:34:23;9.30;99.90
19031;DHT22;9648;51.130;13.978;2022-12-24T01:36:50;9.30;99.90
19031;DHT22;9648;51.130;13.978;2022-12-24T01:39:16;9.40;99.90
19031;DHT22;9648;51.130;13.978;2022-12-24T01:41:47;9.40;99.90
19031;DHT22;9648;51.130;13.978;2022-12-24T01:44:34;9.40;99.90
19031;DHT22;9648;51.130;13.978;2022-12-24T01:47:05;9.40;99.90
19031;DHT22;9648;51.130;13.978;2022-12-24T01:49:34;9.40;99.90
19031;DHT22;9648;51.130;13.978;2022-12-24T01:52:05;9.40;99.90
19031;DHT22;9648;51.130;13.978;2022-12-24T01:54:35;9.40;99.90
19031;DHT22;9648;51.130;13.978;2022-12-24T01:57:12;9.40;99.90
19031;DHT22;9648;51.130;13.978;2022-12-24T01:59:42;9.40;99.90
19031;DHT22;9648;51.130;13.978;2022-12-24T02:02:09;9.40;99.90
19031;DHT22;9648;51.130;13.978;2022-12-24T02:04:43;9.40;99.90
19031;DHT22;9648;51.130;13.978;2022-12-24T02:07:12;9.40;99.90
19031;DHT22;9648;51.130;13.978;2022-12-24T02:09:39;9.40;99.90
19031;DHT22;9648;51.130;13.978;2022-12-24T02:12:07;9.40;99.90
19031;DHT22;9648;51.130;13.978;2022-12-24T02:14:35;9.40;99.90
19031;DHT22;9648;51.130;13.978;2022-12-24T02:17:08;9.40;99.90
19031;DHT22;9648;51.130;13.978;2022-12-24T02:19:56;9.40;99.90
19031;DHT22;9648;51.130;13.978;2022-12-24T02:22:39;9.40;99.90
19031;DHT22;9648;51.130;13.978;2022-12-24T02:25:24;9.50;99.90
19031;DHT22;9648;51.130;13.978;2022-12-24T02:27:57;9.40;99.90
19031;DHT22;9648;51.130;13.978;2022-12-24T02:30:30;9.40;99.90
19031;DHT22;9648;51.130;13.978;2022-12-24T02:33:06;9.40;99.90
19031;DHT22;9648;51.130;13.978;2022-12-24T02:35:39;9.40;99.90
19031;DHT22;9648;51.130;13.978;2022-12-24T02:38:13;9.40;99.90
19031;DHT22;9648;51.130;13.978;2022-12-24T02:40:47;9.40;99.90
19031;DHT22;9648;51.130;13.978;2022-12-24T02:43:18;9.40;99.90
19031;DHT22;9648;51.130;13.978;2022-12-24T02:45:53;9.40;99.90
19031;DHT22;9648;51.130;13.978;2022-12-24T02:48:22;9.40;99.90
19031;DHT22;9648;51.130;13.978;2022-12-24T02:51:03;9.40;99.90
19031;DHT22;9648;51.130;13.978;2022-12-24T02:53:30;9.40;99.90
19031;DHT22;9648;51.130;13.978;2022-12-24T02:59:08;9.40;99.90
19031;DHT22;9648;51.130;13.978;2022-12-24T03:01:47;9.40;99.90
19031;DHT22;9648;51.130;13.978;2022-12-24T03:04:21;9.40;99.90
19031;DHT22;9648;51.130;13.978;2022-12-24T03:07:09;9.40;99.90
19031;DHT22;9648;51.130;13.978;2022-12-24T03:09:46;9.40;99.90
19031;DHT22;9648;51.130;13.978;2022-12-24T03:12:18;9.40;99.90
19031;DHT22;9648;51.130;13.978;2022-12-24T03:14:49;9.40;99.90
19031;DHT22;9648;51.130;13.978;2022-12-24T03:17:18;9.40;99.90
19031;DHT22;9648;51.130;13.978;2022-12-24T03:19:48;9.40;99.90
19031;DHT22;9648;51.130;13.978;2022-12-24T03:22:17;9.40;99.90
19031;DHT22;9648;51.130;13.978;2022-12-24T03:24:44;9.40;99.90
19031;DHT22;9648;51.130;13.978;2022-12-24T03:27:11;9.40;99.90
19031;DHT22;9648;51.130;13.978;2022-12-24T03:29:38;9.40;99.90
19031;DHT22;9648;51.130;13.978;2022-12-24T03:32:06;9.50;99.90
19031;DHT22;9648;51.130;13.978;2022-12-24T03:34:34;9.50;99.90
19031;DHT22;9648;51.130;13.978;2022-12-24T03:37:01;9.40;99.90
19031;DHT22;9648;51.130;13.978;2022-12-24T03:39:28;9.40;99.90
19031;DHT22;9648;51.130;13.978;2022-12-24T03:41:55;9.40;99.90
19031;DHT22;9648;51.130;13.978;2022-12-24T03:44:22;9.40;99.90
19031;DHT22;9648;51.130;13.978;2022-12-24T03:46:48;9.30;99.90
19031;DHT22;9648;51.130;13.978;2022-12-24T03:49:15;9.20;99.90
19031;DHT22;9648;51.130;13.978;2022-12-24T03:51:43;9.20;99.90
19031;DHT22;9648;51.130;13.978;2022-12-24T03:54:10;9.20;99.90
19031;DHT22;9648;51.130;13.978;2022-12-24T03:56:36;9.10;99.90
19031;DHT22;9648;51.130;13.978;2022-12-24T03:59:03;9.00;99.90
19031;DHT22;9648;51.130;13.978;2022-12-24T04:01:30;9.10;99.90
19031;DHT22;9648;51.130;13.978;2022-12-24T04:03:56;9.00;99.90
19031;DHT22;9648;51.130;13.978;2022-12-24T04:06:23;9.00;99.90
19031;DHT22;9648;51.130;13.978;2022-12-24T04:08:51;9.00;99.90
19031;DHT22;9648;51.130;13.978;2022-12-24T04:11:18;9.00;99.90
19031;DHT22;9648;51.130;13.978;2022-12-24T04:13:45;9.00;99.90
19031;DHT22;9648;51.130;13.978;2022-12-24T04:16:13;9.00;99.90
19031;DHT22;9648;51.130;13.978;2022-12-24T04:18:40;9.00;99.90
19031;DHT22;9648;51.130;13.978;2022-12-24T04:21:07;9.00;99.90
19031;DHT22;9648;51.130;13.978;2022-12-24T04:23:36;9.00;99.90
19031;DHT22;9648;51.130;13.978;2022-12-24T04:26:06;9.00;99.90
19031;DHT22;9648;51.130;13.978;2022-12-24T04:28:34;9.00;99.90
19031;DHT22;9648;51.130;13.978;2022-12-24T04:31:03;9.10;99.90
19031;DHT22;9648;51.130;13.978;2022-12-24T04:33:30;9.10;99.90
19031;DHT22;9648;51.130;13.978;2022-12-24T04:35:57;9.10;99.90
19031;DHT22;9648;51.130;13.978;2022-12-24T04:38:24;9.10;99.90
19031;DHT22;9648;51.130;13.978;2022-12-24T04:40:57;9.20;99.90
19031;DHT22;9648;51.130;13.978;2022-12-24T04:43:25;9.20;99.90
19031;DHT22;9648;51.130;13.978;2022-12-24T04:45:52;9.20;99.90
19031;DHT22;9648;51.130;13.978;2022-12-24T04:48:19;9.20;99.90
19031;DHT22;9648;51.130;13.978;2022-12-24T04:50:45;9.20;99.90
19031;DHT22;9648;51.130;13.978;2022-12-24T04:53:12;9.20;99.90
19031;DHT22;9648;51.130;13.978;2022-12-24T04:55:43;9.20;99.90
19031;DHT22;9648;51.130;13.978;2022-12-24T04:58:10;9.20;99.90
19031;DHT22;9648;51.130;13.978;2022-12-24T05:00:38;9.30;99.90
19031;DHT22;9648;51.130;13.978;2022-12-24T05:03:05;9.30;99.90
19031;DHT22;9648;51.130;13.978;2022-12-24T05:05:32;9.30;99.90
19031;DHT22;9648;51.130;13.978;2022-12-24T05:07:59;9.40;99.90
19031;DHT22;9648;51.130;13.978;2022-12-24T05:10:25;9.40;99.90
19031;DHT22;9648;51.130;13.978;2022-12-24T05:12:52;9.50;99.90
19031;DHT22;9648;51.130;13.978;2022-12-24T05:15:19;9.50;99.90
19031;DHT22;9648;51.130;13.978;2022-12-24T05:17:47;9.50;99.90
19031;DHT22;9648;51.130;13.978;2022-12-24T05:20:14;9.50;99.90
19031;DHT22;9648;51.130;13.978;2022-12-24T05:22:41;9.50;99.90
19031;DHT22;9648;51.130;13.978;2022-12-24T05:25:27;9.50;99.90
19031;DHT22;9648;51.130;13.978;2022-12-24T05:28:14;9.50;99.90
19031;DHT22;9648;51.130;13.978;2022-12-24T05:30:41;9.50;99.90
19031;DHT22;9648;51.130;13.978;2022-12-24T05:33:09;9.40;99.90
19031;DHT22;9648;51.130;13.978;2022-12-24T05:35:36;9.50;99.90
19031;DHT22;9648;51.130;13.978;2022-12-24T05:38:03;9.40;99.90
19031;DHT22;9648;51.130;13.978;2022-12-24T05:40:29;9.40;99.90
19031;DHT22;9648;51.130;13.978;2022-12-24T05:42:56;9.40;99.90
19031;DHT22;9648;51.130;13.978;2022-12-24T05:45:23;9.30;99.90
19031;DHT22;9648;51.130;13.978;2022-12-24T05:47:49;9.30;99.90
19031;DHT22;9648;51.130;13.978;2022-12-24T05:50:17;9.20;99.90
19031;DHT22;9648;51.130;13.978;2022-12-24T05:52:44;9.20;99.90
19031;DHT22;9648;51.130;13.978;2022-12-24T05:55:11;9.10;99.90
19031;DHT22;9648;51.130;13.978;2022-12-24T05:57:39;9.10;99.90
19031;DHT22;9648;51.130;13.978;2022-12-24T06:00:07;9.00;99.90
19031;DHT22;9648;51.130;13.978;2022-12-24T06:02:34;9.00;99.90
19031;DHT22;9648;51.130;13.978;2022-12-24T06:05:00;9.00;99.90
19031;DHT22;9648;51.130;13.978;2022-12-24T06:07:28;9.00;99.90
19031;DHT22;9648;51.130;13.978;2022-12-24T06:09:55;9.00;99.90
19031;DHT22;9648;51.130;13.978;2022-12-24T06:12:22;9.00;99.90
19031;DHT22;9648;51.130;13.978;2022-12-24T06:14:48;9.00;99.90
19031;DHT22;9648;51.130;13.978;2022-12-24T06:17:15;9.00;99.90
19031;DHT22;9648;51.130;13.978;2022-12-24T06:19:42;9.10;99.90
19031;DHT22;9648;51.130;13.978;2022-12-24T06:22:08;9.10;99.90
19031;DHT22;9648;51.130;13.978;2022-12-24T06:24:36;9.20;99.90
19031;DHT22;9648;51.130;13.978;2022-12-24T06:27:03;9.10;99.90
19031;DHT22;9648;51.130;13.978;2022-12-24T06:29:30;9.10;99.90
19031;DHT22;9648;51.130;13.978;2022-12-24T06:31:56;9.10;99.90
19031;DHT22;9648;51.130;13.978;2022-12-24T06:34:23;9.20;99.90
19031;DHT22;9648;51.130;13.978;2022-12-24T06:36:50;9.20;99.90
19031;DHT22;9648;51.130;13.978;2022-12-24T06:39:16;9.20;99.90
19031;DHT22;9648;51.130;13.978;2022-12-24T06:41:44;9.10;99.90
19031;DHT22;9648;51.130;13.978;2022-12-24T06:44:11;9.20;99.90
19031;DHT22;9648;51.130;13.978;2022-12-24T06:46:38;9.20;99.90
19031;DHT22;9648;51.130;13.978;2022-12-24T06:49:04;9.20;99.90
19031;DHT22;9648;51.130;13.978;2022-12-24T06:51:31;9.10;99.90
19031;DHT22;9648;51.130;13.978;2022-12-24T06:53:58;9.10;99.90
19031;DHT22;9648;51.130;13.978;2022-12-24T06:56:24;9.10;99.90
19031;DHT22;9648;51.130;13.978;2022-12-24T06:58:52;9.10;99.90
19031;DHT22;9648;51.130;13.978;2022-12-24T07:01:20;9.20;99.90
19031;DHT22;9648;51.130;13.978;2022-12-24T07:03:48;9.10;99.90
19031;DHT22;9648;51.130;13.978;2022-12-24T07:06:19;9.10;99.90
19031;DHT22;9648;51.130;13.978;2022-12-24T07:08:47;9.10;99.90
19031;DHT22;9648;51.130;13.978;2022-12-24T07:11:14;9.20;99.90
19031;DHT22;9648;51.130;13.978;2022-12-24T07:13:41;9.10;99.90
19031;DHT22;9648;51.130;13.978;2022-12-24T07:16:09;9.10;99.90
19031;DHT22;9648;51.130;13.978;2022-12-24T07:18:38;9.20;99.90
19031;DHT22;9648;51.130;13.978;2022-12-24T07:21:05;9.20;99.90
19031;DHT22;9648;51.130;13.978;2022-12-24T07:23:32;9.20;99.90
19031;DHT22;9648;51.130;13.978;2022-12-24T07:25:59;9.20;99.90
19031;DHT22;9648;51.130;13.978;2022-12-24T07:28:27;9.10;99.90
19031;DHT22;9648;51.130;13.978;2022-12-24T07:30:54;9.20;99.90
19031;DHT22;9648;51.130;13.978;2022-12-24T07:33:22;9.20;99.90
19031;DHT22;9648;51.130;13.978;2022-12-24T07:35:57;9.20;99.90
19031;DHT22;9648;51.130;13.978;2022-12-24T07:38:23;9.20;99.90
19031;DHT22;9648;51.130;13.978;2022-12-24T07:40:51;9.30;99.90
19031;DHT22;9648;51.130;13.978;2022-12-24T07:43:17;9.30;99.90
19031;DHT22;9648;51.130;13.978;2022-12-24T07:45:44;9.30;99.90
19031;DHT22;9648;51.130;13.978;2022-12-24T07:48:11;9.30;99.90
19031;DHT22;9648;51.130;13.978;2022-12-24T07:50:42;9.20;99.90
19031;DHT22;9648;51.130;13.978;2022-12-24T07:53:09;9.30;99.90
19031;DHT22;9648;51.130;13.978;2022-12-24T07:55:35;9.20;99.90
19031;DHT22;9648;51.130;13.978;2022-12-24T07:58:02;9.30;99.90
19031;DHT22;9648;51.130;13.978;2022-12-24T08:00:29;9.20;99.90
19031;DHT22;9648;51.130;13.978;2022-12-24T08:02:55;9.20;99.90
19031;DHT22;9648;51.130;13.978;2022-12-24T08:05:24;9.20;99.90
19031;DHT22;9648;51.130;13.978;2022-12-24T08:07:53;9.30;99.90
19031;DHT22;9648;51.130;13.978;2022-12-24T08:10:20;9.30;99.90
19031;DHT22;9648;51.130;13.978;2022-12-24T08:12:49;9.30;99.90
19031;DHT22;9648;51.130;13.978;2022-12-24T08:15:16;9.30;99.90
19031;DHT22;9648;51.130;13.978;2022-12-24T08:17:43;9.30;99.90
19031;DHT22;9648;51.130;13.978;2022-12-24T08:20:10;9.30;99.90
19031;DHT22;9648;51.130;13.978;2022-12-24T08:22:37;9.30;99.90
19031;DHT22;9648;51.130;13.978;2022-12-24T08:25:06;9.30;99.90
19031;DHT22;9648;51.130;13.978;2022-12-24T08:27:33;9.30;99.90
19031;DHT22;9648;51.130;13.978;2022-12-24T08:30:00;9.40;99.90
19031;DHT22;9648;51.130;13.978;2022-12-24T08:32:26;9.40;99.90
19031;DHT22;9648;51.130;13.978;2022-12-24T08:34:53;9.40;99.90
19031;DHT22;9648;51.130;13.978;2022-12-24T08:37:20;9.40;99.90
19031;DHT22;9648;51.130;13.978;2022-12-24T08:39:46;9.40;99.90
19031;DHT22;9648;51.130;13.978;2022-12-24T08:42:14;9.40;99.90
19031;DHT22;9648;51.130;13.978;2022-12-24T08:44:41;9.40;99.90
19031;DHT22;9648;51.130;13.978;2022-12-24T08:47:08;9.40;99.90
19031;DHT22;9648;51.130;13.978;2022-12-24T08:49:34;9.40;99.90
19031;DHT22;9648;51.130;13.978;2022-12-24T08:52:01;9.40;99.90
19031;DHT22;9648;51.130;13.978;2022-12-24T08:54:28;9.30;99.90
19031;DHT22;9648;51.130;13.978;2022-12-24T08:56:54;9.30;99.90
19031;DHT22;9648;51.130;13.978;2022-12-24T08:59:23;9.30;99.90
19031;DHT22;9648;51.130;13.978;2022-12-24T09:01:49;9.30;99.90
19031;DHT22;9648;51.130;13.978;2022-12-24T09:04:16;9.40;99.90
19031;DHT22;9648;51.130;13.978;2022-12-24T09:06:43;9.40;99.90
19031;DHT22;9648;51.130;13.978;2022-12-24T09:09:09;9.40;99.90
19031;DHT22;9648;51.130;13.978;2022-12-24T09:11:36;9.40;99.90
19031;DHT22;9648;51.130;13.978;2022-12-24T09:14:03;9.50;99.90
19031;DHT22;9648;51.130;13.978;2022-12-24T09:16:31;9.50;99.90
19031;DHT22;9648;51.130;13.978;2022-12-24T09:18:58;9.50;99.90
19031;DHT22;9648;51.130;13.978;2022-12-24T09:21:24;9.50;99.90
19031;DHT22;9648;51.130;13.978;2022-12-24T09:23:54;9.50;99.90
19031;DHT22;9648;51.130;13.978;2022-12-24T09:26:23;9.60;99.90
19031;DHT22;9648;51.130;13.978;2022-12-24T09:28:50;9.50;99.90
19031;DHT22;9648;51.130;13.978;2022-12-24T09:31:18;9.50;99.90
19031;DHT22;9648;51.130;13.978;2022-12-24T09:33:47;9.50;99.90
19031;DHT22;9648;51.130;13.978;2022-12-24T09:36:14;9.50;99.90
19031;DHT22;9648;51.130;13.978;2022-12-24T09:38:41;9.50;99.90
19031;DHT22;9648;51.130;13.978;2022-12-24T09:41:13;9.60;99.90
19031;DHT22;9648;51.130;13.978;2022-12-24T09:43:44;9.60;99.90
19031;DHT22;9648;51.130;13.978;2022-12-24T09:46:19;9.60;99.90
19031;DHT22;9648;51.130;13.978;2022-12-24T09:48:51;9.70;99.90
19031;DHT22;9648;51.130;13.978;2022-12-24T09:51:26;9.70;99.90
19031;DHT22;9648;51.130;13.978;2022-12-24T09:53:58;9.70;99.90
19031;DHT22;9648;51.130;13.978;2022-12-24T09:56:27;9.70;99.90
19031;DHT22;9648;51.130;13.978;2022-12-24T09:58:58;9.70;99.90
19031;DHT22;9648;51.130;13.978;2022-12-24T10:01:30;9.70;99.90
19031;DHT22;9648;51.130;13.978;2022-12-24T10:04:01;9.70;99.90
19031;DHT22;9648;51.130;13.978;2022-12-24T10:06:34;9.70;99.90
19031;DHT22;9648;51.130;13.978;2022-12-24T10:09:11;9.70;99.90
19031;DHT22;9648;51.130;13.978;2022-12-24T10:11:44;9.70;99.90
19031;DHT22;9648;51.130;13.978;2022-12-24T10:14:23;9.70;99.90
19031;DHT22;9648;51.130;13.978;2022-12-24T10:16:57;9.70;99.90
19031;DHT22;9648;51.130;13.978;2022-12-24T10:19:38;9.70;99.90
19031;DHT22;9648;51.130;13.978;2022-12-24T10:22:14;9.80;99.90
19031;DHT22;9648;51.130;13.978;2022-12-24T10:24:46;9.90;99.90
19031;DHT22;9648;51.130;13.978;2022-12-24T10:27:18;10.00;99.90
19031;DHT22;9648;51.130;13.978;2022-12-24T10:29:49;10.10;99.90
19031;DHT22;9648;51.130;13.978;2022-12-24T10:32:20;10.10;99.90
19031;DHT22;9648;51.130;13.978;2022-12-24T10:34:54;10.20;99.90
19031;DHT22;9648;51.130;13.978;2022-12-24T10:37:24;10.10;99.90
19031;DHT22;9648;51.130;13.978;2022-12-24T10:39:53;10.10;99.90
19031;DHT22;9648;51.130;13.978;2022-12-24T10:42:22;10.00;99.90
19031;DHT22;9648;51.130;13.978;2022-12-24T10:44:54;10.00;99.90
19031;DHT22;9648;51.130;13.978;2022-12-24T10:47:22;10.00;99.90
19031;DHT22;9648;51.130;13.978;2022-12-24T10:49:56;9.90;99.90
19031;DHT22;9648;51.130;13.978;2022-12-24T10:52:29;9.90;99.90
19031;DHT22;9648;51.130;13.978;2022-12-24T10:55:07;10.00;99.90
19031;DHT22;9648;51.130;13.978;2022-12-24T10:57:36;10.00;99.90
19031;DHT22;9648;51.130;13.978;2022-12-24T11:00:04;10.10;99.90
19031;DHT22;9648;51.130;13.978;2022-12-24T11:02:33;10.20;99.90
19031;DHT22;9648;51.130;13.978;2022-12-24T11:05:04;10.20;99.90
19031;DHT22;9648;51.130;13.978;2022-12-24T11:07:31;10.30;99.90
19031;DHT22;9648;51.130;13.978;2022-12-24T11:10:00;10.30;99.90
19031;DHT22;9648;51.130;13.978;2022-12-24T11:12:29;10.30;99.90
19031;DHT22;9648;51.130;13.978;2022-12-24T11:15:01;10.20;99.90
19031;DHT22;9648;51.130;13.978;2022-12-24T11:17:29;10.20;99.90
19031;DHT22;9648;51.130;13.978;2022-12-24T11:19:57;10.10;99.90
19031;DHT22;9648;51.130;13.978;2022-12-24T11:22:30;10.00;99.90
19031;DHT22;9648;51.130;13.978;2022-12-24T11:25:01;9.80;99.90
19031;DHT22;9648;51.130;13.978;2022-12-24T11:27:32;9.80;99.90
19031;DHT22;9648;51.130;13.978;2022-12-24T11:30:20;9.70;99.90
19031;DHT22;9648;51.130;13.978;2022-12-24T11:32:48;9.80;99.90
19031;DHT22;9648;51.130;13.978;2022-12-24T11:35:18;9.90;99.90
19031;DHT22;9648;51.130;13.978;2022-12-24T11:37:47;10.00;99.90
19031;DHT22;9648;51.130;13.978;2022-12-24T11:40:19;10.00;99.90
19031;DHT22;9648;51.130;13.978;2022-12-24T11:42:48;10.00;99.90
19031;DHT22;9648;51.130;13.978;2022-12-24T11:45:21;10.10;99.90
19031;DHT22;9648;51.130;13.978;2022-12-24T11:47:49;10.20;99.90
19031;DHT22;9648;51.130;13.978;2022-12-24T11:50:25;10.20;99.90
19031;DHT22;9648;51.130;13.978;2022-12-24T11:52:59;10.10;99.90
19031;DHT22;9648;51.130;13.978;2022-12-24T11:55:35;10.10;99.90
19031;DHT22;9648;51.130;13.978;2022-12-24T11:58:18;10.10;99.90
19031;DHT22;9648;51.130;13.978;2022-12-24T12:00:46;10.20;99.90
19031;DHT22;9648;51.130;13.978;2022-12-24T12:03:26;10.20;99.90
19031;DHT22;9648;51.130;13.978;2022-12-24T12:05:54;10.30;99.90
19031;DHT22;9648;51.130;13.978;2022-12-24T12:08:24;10.30;99.90
19031;DHT22;9648;51.130;13.978;2022-12-24T12:10:52;10.40;99.90
19031;DHT22;9648;51.130;13.978;2022-12-24T12:13:23;10.30;99.90
19031;DHT22;9648;51.130;13.978;2022-12-24T12:16:06;10.30;99.90
19031;DHT22;9648;51.130;13.978;2022-12-24T12:18:40;10.30;99.90
19031;DHT22;9648;51.130;13.978;2022-12-24T12:21:13;10.30;99.90
19031;DHT22;9648;51.130;13.978;2022-12-24T12:23:44;10.30;99.90
19031;DHT22;9648;51.130;13.978;2022-12-24T12:26:16;10.30;99.90
19031;DHT22;9648;51.130;13.978;2022-12-24T12:28:48;10.20;99.90
19031;DHT22;9648;51.130;13.978;2022-12-24T12:31:20;10.20;99.90
19031;DHT22;9648;51.130;13.978;2022-12-24T12:33:51;10.20;99.90
19031;DHT22;9648;51.130;13.978;2022-12-24T12:36:32;10.20;99.90
19031;DHT22;9648;51.130;13.978;2022-12-24T12:39:00;10.30;99.90
19031;DHT22;9648;51.130;13.978;2022-12-24T12:41:37;10.30;99.90
19031;DHT22;9648;51.130;13.978;2022-12-24T12:44:30;10.30;99.90
19031;DHT22;9648;51.130;13.978;2022-12-24T12:47:16;10.30;99.90
19031;DHT22;9648;51.130;13.978;2022-12-24T12:49:54;10.20;99.90
19031;DHT22;9648;51.130;13.978;2022-12-24T12:52:37;10.30;99.90
19031;DHT22;9648;51.130;13.978;2022-12-24T12:55:21;10.30;99.90
19031;DHT22;9648;51.130;13.978;2022-12-24T12:57:50;10.20;99.90
19031;DHT22;9648;51.130;13.978;2022-12-24T13:00:19;10.20;99.90
19031;DHT22;9648;51.130;13.978;2022-12-24T13:05:55;10.10;99.90
19031;DHT22;9648;51.130;13.978;2022-12-24T13:08:50;10.10;99.90
19031;DHT22;9648;51.130;13.978;2022-12-24T13:11:40;10.00;99.90
19031;DHT22;9648;51.130;13.978;2022-12-24T13:14:33;10.00;99.90
19031;DHT22;9648;51.130;13.978;2022-12-24T13:17:17;10.00;99.90
19031;DHT22;9648;51.130;13.978;2022-12-24T13:20:17;9.90;99.90
19031;DHT22;9648;51.130;13.978;2022-12-24T13:22:55;9.80;99.90
19031;DHT22;9648;51.130;13.978;2022-12-24T13:25:26;9.80;99.90
19031;DHT22;9648;51.130;13.978;2022-12-24T13:27:54;9.80;99.90
19031;DHT22;9648;51.130;13.978;2022-12-24T13:30:38;9.80;99.90
19031;DHT22;9648;51.130;13.978;2022-12-24T13:33:11;9.80;99.90
19031;DHT22;9648;51.130;13.978;2022-12-24T13:35:56;9.80;99.90
19031;DHT22;9648;51.130;13.978;2022-12-24T13:38:40;9.80;99.90
19031;DHT22;9648;51.130;13.978;2022-12-24T13:44:28;9.80;99.90
19031;DHT22;9648;51.130;13.978;2022-12-24T13:47:02;9.70;99.90
19031;DHT22;9648;51.130;13.978;2022-12-24T13:49:36;9.80;99.90
19031;DHT22;9648;51.130;13.978;2022-12-24T13:52:23;9.80;99.90
19031;DHT22;9648;51.130;13.978;2022-12-24T13:55:05;9.80;99.90
19031;DHT22;9648;51.130;13.978;2022-12-24T13:57:36;9.80;99.90
19031;DHT22;9648;51.130;13.978;2022-12-24T14:00:21;9.70;99.90
19031;DHT22;9648;51.130;13.978;2022-12-24T14:02:53;9.70;99.90
19031;DHT22;9648;51.130;13.978;2022-12-24T14:05:30;9.70;99.90
19031;DHT22;9648;51.130;13.978;2022-12-24T14:07:59;9.70;99.90
19031;DHT22;9648;51.130;13.978;2022-12-24T14:10:30;9.70;99.90
19031;DHT22;9648;51.130;13.978;2022-12-24T14:12:58;9.60;99.90
19031;DHT22;9648;51.130;13.978;2022-12-24T14:18:31;9.80;99.90
19031;DHT22;9648;51.130;13.978;2022-12-24T14:21:00;9.80;99.90
19031;DHT22;9648;51.130;13.978;2022-12-24T14:23:42;9.80;99.90
19031;DHT22;9648;51.130;13.978;2022-12-24T14:26:13;9.80;99.90
19031;DHT22;9648;51.130;13.978;2022-12-24T14:28:45;9.80;99.90
19031;DHT22;9648;51.130;13.978;2022-12-24T14:31:15;9.70;99.90
19031;DHT22;9648;51.130;13.978;2022-12-24T14:33:44;9.70;99.90
19031;DHT22;9648;51.130;13.978;2022-12-24T14:36:13;9.70;99.90
19031;DHT22;9648;51.130;13.978;2022-12-24T14:38:42;9.70;99.90
19031;DHT22;9648;51.130;13.978;2022-12-24T14:41:22;9.80;99.90
19031;DHT22;9648;51.130;13.978;2022-12-24T14:43:56;9.80;99.90
19031;DHT22;9648;51.130;13.978;2022-12-24T14:46:32;9.70;99.90
19031;DHT22;9648;51.130;13.978;2022-12-24T14:49:06;9.70;99.90
19031;DHT22;9648;51.130;13.978;2022-12-24T14:51:38;9.70;99.90
19031;DHT22;9648;51.130;13.978;2022-12-24T14:54:33;9.70;99.90
19031;DHT22;9648;51.130;13.978;2022-12-24T14:57:18;9.60;99.90
19031;DHT22;9648;51.130;13.978;2022-12-24T14:59:47;9.60;99.90
19031;DHT22;9648;51.130;13.978;2022-12-24T15:02:41;9.60;99.90
19031;DHT22;9648;51.130;13.978;2022-12-24T15:05:14;9.60;99.90
19031;DHT22;9648;51.130;13.978;2022-12-24T15:07:46;9.60;99.90
19031;DHT22;9648;51.130;13.978;2022-12-24T15:10:27;9.70;99.90
19031;DHT22;9648;51.130;13.978;2022-12-24T15:12:57;9.60;99.90
19031;DHT22;9648;51.130;13.978;2022-12-24T15:15:27;9.60;99.90
19031;DHT22;9648;51.130;13.978;2022-12-24T15:17:54;9.70;99.90
19031;DHT22;9648;51.130;13.978;2022-12-24T15:20:24;9.70;99.90
19031;DHT22;9648;51.130;13.978;2022-12-24T15:22:54;9.60;99.90
19031;DHT22;9648;51.130;13.978;2022-12-24T15:25:24;9.60;99.90
19031;DHT22;9648;51.130;13.978;2022-12-24T15:27:51;9.60;99.90
19031;DHT22;9648;51.130;13.978;2022-12-24T15:30:23;9.50;99.90
19031;DHT22;9648;51.130;13.978;2022-12-24T15:32:52;9.50;99.90
19031;DHT22;9648;51.130;13.978;2022-12-24T15:35:46;9.50;99.90
19031;DHT22;9648;51.130;13.978;2022-12-24T15:38:23;9.30;99.90
19031;DHT22;9648;51.130;13.978;2022-12-24T15:40:53;9.20;99.90
19031;DHT22;9648;51.130;13.978;2022-12-24T15:43:21;9.00;99.90
19031;DHT22;9648;51.130;13.978;2022-12-24T15:45:48;8.80;99.90
19031;DHT22;9648;51.130;13.978;2022-12-24T15:48:21;8.70;99.90
19031;DHT22;9648;51.130;13.978;2022-12-24T15:50:51;8.60;99.90
19031;DHT22;9648;51.130;13.978;2022-12-24T15:53:22;8.60;99.90
19031;DHT22;9648;51.130;13.978;2022-12-24T15:56:06;8.50;99.90
19031;DHT22;9648;51.130;13.978;2022-12-24T15:58:34;8.50;99.90
19031;DHT22;9648;51.130;13.978;2022-12-24T16:01:05;8.40;99.90
19031;DHT22;9648;51.130;13.978;2022-12-24T16:03:31;8.40;99.90
19031;DHT22;9648;51.130;13.978;2022-12-24T16:06:00;8.40;99.90
19031;DHT22;9648;51.130;13.978;2022-12-24T16:08:29;8.50;99.90
19031;DHT22;9648;51.130;13.978;2022-12-24T16:11:15;8.40;99.90
19031;DHT22;9648;51.130;13.978;2022-12-24T16:13:58;8.30;99.90
19031;DHT22;9648;51.130;13.978;2022-12-24T16:16:35;8.10;99.90
19031;DHT22;9648;51.130;13.978;2022-12-24T16:19:03;8.00;99.90